createdAt,value
2022-12-25T00:01:46.143Z,5.80
2022-12-25T00:07:47.578Z,5.93
2022-12-25T00:13:49.565Z,5.75
2022-12-25T00:19:51.014Z,4.50
2022-12-25T00:25:52.913Z,3.80
2022-12-25T00:31:54.430Z,3.13
2022-12-25T00:37:55.910Z,3.47
2022-12-25T00:43:57.342Z,3.60
2022-12-25T00:49:58.812Z,3.45
2022-12-25T00:56:01.404Z,3.53
2022-12-25T01:02:21.964Z,3.53
2022-12-25T01:08:23.737Z,3.47
2022-12-25T01:14:25.245Z,3.50
2022-12-25T01:20:26.700Z,3.05
2022-12-25T01:26:28.312Z,3.60
2022-12-25T01:32:29.767Z,3.80
2022-12-25T01:38:31.234Z,3.63
2022-12-25T01:44:35.664Z,3.70
2022-12-25T01:50:38.784Z,3.50
2022-12-25T01:56:41.811Z,3.70
2022-12-25T02:02:44.380Z,3.20
2022-12-25T02:08:45.996Z,3.80
2022-12-25T02:14:49.059Z,4.18
2022-12-25T02:21:17.801Z,4.03
2022-12-25T02:27:24.279Z,3.50
2022-12-25T02:33:49.704Z,4.03
2022-12-25T02:40:10.279Z,4.60
2022-12-25T02:46:32.231Z,4.97
2022-12-25T02:52:52.909Z,4.22
2022-12-25T02:59:13.108Z,4.20
2022-12-25T03:05:35.451Z,4.80
2022-12-25T03:11:36.983Z,4.73
2022-12-25T03:17:38.517Z,3.90
2022-12-25T03:24:00.380Z,3.78
2022-12-25T03:30:22.186Z,5.00
2022-12-25T03:36:28.115Z,4.50
2022-12-25T03:42:56.583Z,3.47
2022-12-25T03:49:22.316Z,3.70
2022-12-25T03:55:43.610Z,3.40
2022-12-25T04:02:04.032Z,3.77
2022-12-25T04:08:24.632Z,3.50
2022-12-25T04:14:45.018Z,3.63
2022-12-25T04:21:05.217Z,3.45
2022-12-25T04:27:25.515Z,3.65
2022-12-25T04:33:45.995Z,4.20
2022-12-25T04:39:47.544Z,3.75
2022-12-25T04:45:52.644Z,4.17
2022-12-25T04:51:54.164Z,3.47
2022-12-25T04:57:55.647Z,4.00
2022-12-25T05:03:57.237Z,3.53
2022-12-25T05:09:58.806Z,3.80
2022-12-25T05:16:00.294Z,3.23
2022-12-25T05:22:01.784Z,4.07
2022-12-25T05:28:03.322Z,4.07
2022-12-25T05:34:04.777Z,3.63
2022-12-25T05:40:06.540Z,4.30
2022-12-25T05:46:08.892Z,4.20
2022-12-25T05:52:10.435Z,3.85
2022-12-25T05:58:13.183Z,3.95
2022-12-25T06:04:14.669Z,4.23
2022-12-25T06:10:16.170Z,4.13
2022-12-25T06:16:17.811Z,4.10
2022-12-25T06:22:19.553Z,3.45
2022-12-25T06:28:21.075Z,4.20
2022-12-25T06:34:22.955Z,3.97
2022-12-25T06:40:24.585Z,4.45
2022-12-25T06:46:27.467Z,5.40
2022-12-25T06:52:31.338Z,5.53
2022-12-25T06:58:32.990Z,4.32
2022-12-25T07:04:41.118Z,5.20
2022-12-25T07:10:42.697Z,4.82
2022-12-25T07:16:44.394Z,4.53
2022-12-25T07:22:46.049Z,4.63
2022-12-25T07:28:47.713Z,4.30
2022-12-25T07:34:49.339Z,4.27
2022-12-25T07:40:50.858Z,4.15
2022-12-25T07:46:52.592Z,4.07
2022-12-25T07:52:55.255Z,4.28
2022-12-25T07:58:56.880Z,4.65
2022-12-25T08:04:58.548Z,3.70
2022-12-25T08:11:00.292Z,4.30
2022-12-25T08:17:01.765Z,4.30
2022-12-25T08:23:03.793Z,4.68
2022-12-25T08:29:05.254Z,5.00
2022-12-25T08:35:07.118Z,4.80
2022-12-25T08:41:09.094Z,5.05
2022-12-25T08:47:10.528Z,4.97
2022-12-25T08:53:12.182Z,4.70
2022-12-25T08:59:13.636Z,4.25
2022-12-25T09:05:15.084Z,4.43
2022-12-25T09:11:17.651Z,5.10
2022-12-25T09:17:19.496Z,4.03
2022-12-25T09:23:20.927Z,3.30
2022-12-25T09:29:22.451Z,3.10
2022-12-25T09:35:24.007Z,2.90
2022-12-25T09:41:25.457Z,3.40
2022-12-25T09:47:29.023Z,3.57
2022-12-25T09:53:35.579Z,3.78
2022-12-25T09:59:37.578Z,3.40
2022-12-25T10:06:01.493Z,3.43
2022-12-25T10:12:17.279Z,3.58
2022-12-25T10:18:38.191Z,3.67
2022-12-25T10:24:45.344Z,3.70
2022-12-25T10:30:48.604Z,3.55
2022-12-25T10:36:50.407Z,3.43
2022-12-25T10:42:55.299Z,3.70
2022-12-25T10:48:58.823Z,4.00
2022-12-25T10:55:10.114Z,4.25
2022-12-25T11:01:12.243Z,3.97
2022-12-25T11:07:19.314Z,3.77
2022-12-25T11:13:21.730Z,3.72
2022-12-25T11:19:28.534Z,4.10
2022-12-25T11:25:30.072Z,3.60
2022-12-25T11:31:40.579Z,3.70
2022-12-25T11:37:44.870Z,3.33
2022-12-25T11:43:48.707Z,3.90
2022-12-25T11:50:00.933Z,3.57
2022-12-25T11:56:11.575Z,3.88
2022-12-25T12:02:21.328Z,4.20
2022-12-25T12:08:22.961Z,3.80
2022-12-25T12:14:39.575Z,3.80
2022-12-25T12:20:41.391Z,3.90
2022-12-25T12:26:44.510Z,3.58
2022-12-25T12:32:50.639Z,3.70
2022-12-25T12:38:52.909Z,3.70
2022-12-25T12:44:55.844Z,3.60
2022-12-25T12:51:10.174Z,3.50
2022-12-25T12:57:29.470Z,3.78
2022-12-25T13:03:49.724Z,2.97
2022-12-25T13:09:58.042Z,3.93
2022-12-25T13:15:59.514Z,3.40
2022-12-25T13:22:02.087Z,3.37
2022-12-25T13:28:04.814Z,3.10
2022-12-25T13:34:12.895Z,2.83
2022-12-25T13:40:23.013Z,4.03
2022-12-25T13:46:25.886Z,7.38
2022-12-25T13:52:34.800Z,7.27
2022-12-25T13:58:37.108Z,4.22
2022-12-25T14:04:43.757Z,2.47
2022-12-25T14:10:48.099Z,3.10
2022-12-25T14:16:50.906Z,3.42
2022-12-25T14:22:53.858Z,3.03
2022-12-25T14:28:58.203Z,3.20
2022-12-25T14:35:03.373Z,3.40
2022-12-25T14:41:07.419Z,3.47
2022-12-25T14:47:19.408Z,3.80
2022-12-25T14:53:22.104Z,3.63
2022-12-25T14:59:25.076Z,4.50
2022-12-25T15:05:28.487Z,4.28
2022-12-25T15:11:30.004Z,3.70
2022-12-25T15:17:33.138Z,4.10
2022-12-25T15:23:35.012Z,4.33
2022-12-25T15:30:08.407Z,5.20
2022-12-25T15:35:57.884Z,4.32
2022-12-25T15:42:12.738Z,4.53
2022-12-25T15:48:14.435Z,3.83
2022-12-25T15:54:16.399Z,4.47
2022-12-25T16:00:19.143Z,5.38
2022-12-25T16:06:20.587Z,6.10
2022-12-25T16:12:22.191Z,5.43
2022-12-25T16:18:23.899Z,6.05
2022-12-25T16:24:25.508Z,6.33
2022-12-25T16:30:27.029Z,6.78
2022-12-25T16:36:28.511Z,6.55
2022-12-25T16:42:29.985Z,6.33
2022-12-25T16:48:31.463Z,8.05
2022-12-25T16:54:32.990Z,7.80
2022-12-25T17:00:34.483Z,7.53
2022-12-25T17:06:36.201Z,7.35
2022-12-25T17:12:37.763Z,6.73
2022-12-25T17:18:39.262Z,7.18
2022-12-25T17:24:41.460Z,6.90
2022-12-25T17:30:42.940Z,6.95
2022-12-25T17:36:44.759Z,7.10
2022-12-25T17:42:46.213Z,6.43
2022-12-25T17:48:49.885Z,6.20
2022-12-25T17:54:51.446Z,5.53
2022-12-25T18:00:53.569Z,6.10
2022-12-25T18:06:55.025Z,9.48
2022-12-25T18:12:56.473Z,7.60
2022-12-25T18:18:59.504Z,7.45
2022-12-25T18:25:01.042Z,4.60
2022-12-25T18:31:02.642Z,4.53
2022-12-25T18:37:04.201Z,4.45
2022-12-25T18:43:05.664Z,3.70
2022-12-25T18:49:07.177Z,3.80
2022-12-25T18:55:09.168Z,3.77
2022-12-25T19:01:15.267Z,3.10
2022-12-25T19:07:16.744Z,4.18
2022-12-25T19:13:18.215Z,2.90
2022-12-25T19:19:19.893Z,2.60
2022-12-25T19:25:21.369Z,2.40
2022-12-25T19:31:22.935Z,2.22
2022-12-25T19:37:24.390Z,1.90
2022-12-25T19:43:30.292Z,2.00
2022-12-25T19:49:33.746Z,2.00
2022-12-25T19:55:35.679Z,1.63
2022-12-25T20:01:39.028Z,1.90
2022-12-25T20:07:41.270Z,1.83
2022-12-25T20:13:43.882Z,1.63
2022-12-25T20:19:45.791Z,1.70
2022-12-25T20:25:47.764Z,1.73
2022-12-25T20:31:49.477Z,1.58
2022-12-25T20:37:51.170Z,2.00
2022-12-25T20:43:52.973Z,1.80
2022-12-25T20:49:54.671Z,1.98
2022-12-25T20:55:56.324Z,1.80
2022-12-25T21:01:57.996Z,1.73
2022-12-25T21:07:59.634Z,1.83
2022-12-25T21:14:01.095Z,1.80
2022-12-25T21:20:02.875Z,2.13
2022-12-25T21:26:15.921Z,1.90
2022-12-25T21:32:43.564Z,1.73
2022-12-25T21:38:45.470Z,1.90
2022-12-25T21:44:47.772Z,1.70
2022-12-25T21:51:07.804Z,1.73
2022-12-25T21:57:09.232Z,1.97
2022-12-25T22:03:10.729Z,1.85
2022-12-25T22:09:12.515Z,1.63
2022-12-25T22:15:13.963Z,1.87
2022-12-25T22:21:19.689Z,2.08
2022-12-25T22:27:21.558Z,2.10
2022-12-25T22:33:25.426Z,2.00
2022-12-25T22:39:27.277Z,2.10
2022-12-25T22:45:28.766Z,2.33
2022-12-25T22:51:30.673Z,2.20
2022-12-25T22:57:32.130Z,2.00
2022-12-25T23:03:33.755Z,1.90
2022-12-25T23:09:35.410Z,2.25
2022-12-25T23:15:36.894Z,2.20
2022-12-25T23:21:57.121Z,2.42
2022-12-25T23:27:58.601Z,2.27
2022-12-25T23:34:00.815Z,2.20
2022-12-25T23:40:02.307Z,2.80
2022-12-25T23:46:04.351Z,2.43
2022-12-25T23:52:06.157Z,2.80
2022-12-25T23:58:07.655Z,2.70
